Latest Coastal Weather Observations for Roebourne Airport

IDW60701

Issued at 1:05 pm WST Thursday 28 August 2014 (issued every 10 minutes, with the page automatically refreshed every 10 minutes)

About coastal observations | Map of coastal stations | Coastal observations for WA | Marine services | Other Formats
Station Details ID: 004090 Name: ROEBOURNE AERO Lat: -20.76 Lon: 117.16 Height: 10.7 m
Data from the previous 72 hours. | See also: Recent months at Roebourne Airport
Date/Time
WST
Temp

°C
Wind Pressure Rain
since 9am
mm
Weather Cloud Vis
km
Sea
Height
m
Swell
Dir
 
Speed
knots
Gust
knots
hPa Trend Height
m
Period
s
Dir
28/01:00pm 33.1 ENE 12 18 1015.9 - 0.0 - - - - - - -
28/12:30pm 32.8 ENE 16 23 1016.1 - 0.0 - - - - - - -
28/12:00pm 32.5 ENE 12 17 1016.3 - 0.0 - - - - - - -
28/11:30am 32.2 ENE 9 14 1016.6 - 0.0 - - - - - - -
28/11:00am 31.9 ESE 8 12 1016.8 - 0.0 - - - - - - -
28/10:30am 30.8 ESE 7 11 1017.6 - 0.0 - - - - - - -
28/10:00am 29.9 SSE 6 11 1018.1 - 0.0 - - - - - - -
28/09:30am 27.9 SE 4 6 1018.4 - 0.0 - - - - - - -
28/09:00am 24.9 SSE 3 5 1018.3 - 0.0 - - - - - - -
28/08:30am 22.1 S 1 4 1018.2 - 0.0 - - - - - - -
28/08:00am 18.3 CALM 0 0 1018.1 - 0.0 - - - - - - -
28/07:30am 15.9 CALM 0 0 1017.9 - 0.0 - - - - - - -
28/07:00am 11.9 NNE 1 3 1017.5 - 0.0 - - - - - - -
28/06:30am 10.6 CALM 0 0 1017.2 - 0.0 - - - - - - -
28/06:00am 11.1 N 1 3 1016.9 - 0.0 - - - - - - -
28/05:30am 10.7 N 3 4 1016.8 - 0.0 - - - - - - -
28/05:00am 10.5 SE 1 4 1016.5 - 0.0 - - - - - - -
28/04:30am 11.1 CALM 0 0 1016.3 - 0.0 - - - - - - -
28/04:00am 13.1 SSW 6 7 1016.1 - 0.0 - - - - - - -
28/03:30am 12.7 SSW 7 8 1016.1 - 0.0 - - - - - - -
28/03:00am 12.6 SSW 8 9 1016.0 - 0.0 - - - - - - -
28/02:30am 11.8 SSW 8 10 1016.0 - 0.0 - - - - - - -
28/02:00am 12.4 SSW 3 4 1016.1 - 0.0 - - - - - - -
28/01:30am 12.3 SSW 4 5 1016.5 - 0.0 - - - - - - -
28/01:00am 13.3 WSW 4 5 1016.5 - 0.0 - - - - - - -
28/12:30am 13.9 SSW 6 7 1016.7 - 0.0 - - - - - - -
28/12:00am 14.3 WNW 0 3 1016.8 - 0.0 - - - - - - -
 
Date/Time
WST
Temp

°C
Wind Pressure Rain
since 9am
mm
Weather Cloud Vis
km
Sea
Height
m
Swell
Dir
 
Speed
knots
Gust
knots
hPa Trend Height
m
Period
s
Dir
27/11:30pm 14.1 SW 1 3 1017.1 - 0.0 - - - - - - -
27/11:00pm 13.7 S 2 4 1017.3 - 0.0 - - - - - - -
27/10:30pm 14.7 CALM 0 0 1017.3 - 0.0 - - - - - - -
27/10:00pm 15.5 SE 4 5 1017.4 - 0.0 - - - - - - -
27/09:30pm 16.1 SSE 5 6 1017.4 - 0.0 - - - - - - -
27/09:00pm 17.0 S 7 8 1017.3 - 0.0 - - - - - - -
27/08:30pm 16.3 S 1 3 1017.1 - 0.0 - - - - - - -
27/08:00pm 17.3 S 3 4 1016.8 - 0.0 - - - - - - -
27/07:30pm 18.9 CALM 0 0 1016.4 - 0.0 - - - - - - -
27/07:00pm 21.3 N 3 4 1016.0 - 0.0 - - - - - - -
27/06:30pm 22.0 N 5 6 1015.5 - 0.0 - - - - - - -
27/06:00pm 23.8 N 9 11 1015.3 - 0.0 - - - - - - -
27/05:30pm 25.6 N 11 14 1015.2 - 0.0 - - - - - - -
27/05:00pm 26.8 N 14 18 1015.2 - 0.0 - - - - - - -
27/04:30pm 27.6 N 17 21 1015.1 - 0.0 - - - - - - -
27/04:00pm 28.5 N 17 20 1014.9 - 0.0 - - - - - - -
27/03:30pm 29.3 NNE 17 23 1014.9 - 0.0 - - - - - - -
27/03:00pm 29.8 NNE 18 22 1015.0 - 0.0 - - - - - - -
27/02:30pm 29.9 N 17 21 1015.2 - 0.0 - - - - - - -
27/02:00pm 30.4 NNE 17 22 1015.3 - 0.0 - - - - - - -
27/01:30pm 30.0 NNE 17 21 1015.7 - 0.0 - - - - - - -
27/01:00pm 30.2 NE 17 22 1016.1 - 0.0 - - - - - - -
27/12:30pm 31.4 NE 15 21 1016.5 - 0.0 - - - - - - -
27/12:00pm 31.2 NE 15 21 1017.0 - 0.0 - - - - - - -
27/11:30am 30.8 ENE 14 19 1017.6 - 0.0 - - - - - - -
27/11:00am 30.8 ENE 15 20 1017.9 - 0.0 - - - - - - -
27/10:30am 30.5 E 12 17 1018.2 - 0.0 - - - - - - -
27/10:00am 29.6 ENE 12 17 1018.3 - 0.0 - - - - - - -
27/09:30am 28.9 E 11 15 1018.2 - 0.0 - - - - - - -
27/09:00am 27.5 ESE 10 13 1018.3 - 0.0 - - - - - - -
27/08:30am 24.2 SSE 4 5 1018.3 - 0.0 - - - - - - -
27/08:00am 20.2 CALM 0 0 1018.0 - 0.0 - - - - - - -
27/07:30am 16.2 S 1 3 1017.7 - 0.0 - - - - - - -
27/07:00am 11.6 CALM 0 0 1017.3 - 0.0 - - - - - - -
27/06:30am 11.2 CALM 0 0 1017.0 - 0.0 - - - - - - -
27/06:00am 10.0 CALM 0 0 1016.7 - 0.0 - - - - - - -
27/05:30am 10.7 CALM 0 0 1016.4 - 0.0 - - - - - - -
27/05:00am 11.8 CALM 0 0 1016.1 - 0.0 - - - - - - -
27/04:30am 11.6 CALM 0 0 1016.0 - 0.0 - - - - - - -
27/04:00am 11.8 SSW 4 5 1015.9 - 0.0 - - - - - - -
27/03:30am 11.5 SSW 1 4 1016.0 - 0.0 - - - - - - -
27/03:00am 12.5 SSW 6 7 1016.0 - 0.0 - - - - - - -
27/02:30am 14.0 SSW 6 8 1016.1 - 0.0 - - - - - - -
27/02:00am 11.8 SSW 7 8 1016.4 - 0.0 - - - - - - -
27/01:30am 12.3 SSW 5 7 1016.5 - 0.0 - - - - - - -
27/01:00am 12.3 S 4 5 1016.7 - 0.0 - - - - - - -
27/12:30am 13.5 SW 4 5 1016.8 - 0.0 - - - - - - -
27/12:00am 13.8 SSW 3 4 1017.0 - 0.0 - - - - - - -
 
Date/Time
WST
Temp

°C
Wind Pressure Rain
since 9am
mm
Weather Cloud Vis
km
Sea
Height
m
Swell
Dir
 
Speed
knots
Gust
knots
hPa Trend Height
m
Period
s
Dir
26/11:30pm 14.9 SSW 5 6 1017.1 - 0.0 - - - - - - -
26/11:00pm 14.5 S 7 8 1017.4 - 0.0 - - - - - - -
26/10:30pm 15.6 SSW 5 6 1017.4 - 0.0 - - - - - - -
26/10:00pm 15.9 CALM 0 3 1017.5 - 0.0 - - - - - - -
26/09:30pm 16.4 SSW 6 7 1017.6 - 0.0 - - - - - - -
26/09:00pm 16.1 S 5 8 1017.5 - 0.0 - - - - - - -
26/08:30pm 16.2 S 3 6 1017.4 - 0.0 - - - - - - -
26/08:00pm 18.3 CALM 0 3 1017.3 - 0.0 - - - - - - -
26/07:30pm 17.9 SSW 3 4 1017.0 - 0.0 - - - - - - -
26/07:00pm 19.1 N 3 5 1016.6 - 0.0 - - - - - - -
26/06:30pm 21.8 N 5 6 1016.2 - 0.0 - - - - - - -
26/06:00pm 24.0 N 7 9 1016.0 - 0.0 - - - - - - -
26/05:30pm 26.2 N 12 16 1015.6 - 0.0 - - - - - - -
26/05:00pm 27.3 N 13 16 1015.5 - 0.0 - - - - - - -
26/04:30pm 27.9 N 13 17 1015.5 - 0.0 - - - - - - -
26/04:00pm 28.6 N 16 21 1015.5 - 0.0 - - - - - - -
26/03:30pm 28.6 NNE 17 22 1015.5 - 0.0 - - - - - - -
26/03:00pm 28.7 NNE 17 23 1015.7 - 0.0 - - - - - - -
26/02:30pm 29.4 NNE 19 23 1015.9 - 0.0 - - - - - - -
26/02:00pm 30.2 NNE 19 25 1016.3 - 0.0 - - - - - - -
26/01:30pm 30.5 NE 19 25 1016.7 - 0.0 - - - - - - -
26/01:00pm 30.3 NNE 20 24 1017.2 - 0.0 - - - - - - -
26/12:30pm 30.7 NE 20 25 1017.9 - 0.0 - - - - - - -
26/12:00pm 30.8 NE 18 23 1018.4 - 0.0 - - - - - - -
26/11:30am 31.0 ENE 17 22 1018.7 - 0.0 - - - - - - -
26/11:00am 31.2 ENE 17 22 1019.2 - 0.0 - - - - - - -
26/10:30am 30.2 ENE 17 24 1019.6 - 0.0 - - - - - - -
26/10:00am 29.3 E 16 20 1019.7 - 0.0 - - - - - - -
26/09:30am 28.6 E 16 24 1019.9 - 0.0 - - - - - - -
26/09:00am 27.7 E 13 17 1019.9 - 0.0 - - - - - - -
26/08:30am 26.6 ESE 10 15 1019.9 - 0.0 - - - - - - -
26/08:00am 25.0 ESE 7 12 1019.7 - 0.0 - - - - - - -
26/07:52am 23.1 SE 5 7 1019.6 - 0.0 - - - - - - -
26/07:30am 18.1 SSE 3 5 1019.6 - 0.0 - - - - - - -
26/07:00am 12.9 SSW 4 6 1019.3 - 0.0 - - - - - - -
26/06:30am 11.1 SSW 1 5 1018.8 - 0.0 - - - - - - -
26/06:00am 12.3 CALM 0 0 1018.6 - 0.0 - - - - - - -
26/05:30am 11.7 CALM 0 0 1018.5 - 0.0 - - - - - - -
26/05:00am 12.0 CALM 0 0 1018.4 - 0.0 - - - - - - -
26/04:30am 12.1 S 1 3 1018.4 - 0.0 - - - - - - -
26/04:00am 13.7 S 5 8 1018.3 - 0.0 - - - - - - -
26/03:30am 14.9 SW 4 7 1018.3 - 0.0 - - - - - - -
26/03:00am 14.9 SSW 9 9 1018.2 - 0.0 - - - - - - -
26/02:30am 12.7 SSW 5 6 1018.4 - 0.0 - - - - - - -
26/02:00am 13.0 SW 7 7 1018.5 - 0.0 - - - - - - -
26/01:30am 13.8 WSW 1 4 1018.7 - 0.0 - - - - - - -
26/01:00am 14.0 WSW 3 4 1018.9 - 0.0 - - - - - - -
26/12:30am 14.5 SSW 6 7 1019.0 - 0.0 - - - - - - -
26/12:00am 14.7 SW 4 5 1019.1 - 0.0 - - - - - - -
 
Date/Time
WST
Temp

°C
Wind Pressure Rain
since 9am
mm
Weather Cloud Vis
km
Sea
Height
m
Swell
Dir
 
Speed
knots
Gust
knots
hPa Trend Height
m
Period
s
Dir
25/11:30pm 15.2 SW 4 5 1019.1 - 0.0 - - - - - - -
25/11:00pm 16.0 SSW 6 8 1019.3 - 0.0 - - - - - - -
25/10:30pm 16.4 SSW 6 6 1019.3 - 0.0 - - - - - - -
25/10:00pm 15.7 S 6 6 1019.3 - 0.0 - - - - - - -
25/09:30pm 17.1 SSW 9 11 1019.3 - 0.0 - - - - - - -
25/09:00pm 17.1 S 5 7 1019.2 - 0.0 - - - - - - -
25/08:30pm 18.1 S 4 5 1019.1 - 0.0 - - - - - - -
25/08:00pm 17.5 S 4 5 1018.9 - 0.0 - - - - - - -
25/07:30pm 18.2 CALM 0 0 1018.5 - 0.0 - - - - - - -
25/07:00pm 21.0 CALM 0 0 1018.2 - 0.0 - - - - - - -
25/06:30pm 22.5 N 4 6 1017.9 - 0.0 - - - - - - -
25/06:00pm 24.2 N 9 11 1017.4 - 0.0 - - - - - - -
25/05:30pm 25.8 N 12 15 1017.1 - 0.0 - - - - - - -
25/05:00pm 27.0 NNE 15 21 1017.0 - 0.0 - - - - - - -
25/04:30pm 28.5 NNE 16 22 1016.8 - 0.0 - - - - - - -
25/04:00pm 28.9 NNE 18 22 1016.8 - 0.0 - - - - - - -
25/03:30pm 29.4 NNE 18 22 1016.8 - 0.0 - - - - - - -
25/03:00pm 30.4 NNE 17 23 1016.9 - 0.0 - - - - - - -
25/02:30pm 30.4 NNE 17 22 1017.1 - 0.0 - - - - - - -
25/02:00pm 31.0 NE 19 24 1017.2 - 0.0 - - - - - - -
25/01:30pm 31.2 NE 21 27 1017.2 - 0.0 - - - - - - -

Other Formats:

Comma delimited format used in spreadsheet applications
http://www.bom.gov.au/fwo/IDW60701/IDW60701.94308.axf

JavaScript Object Notation format (JSON) in row-major order
http://www.bom.gov.au/fwo/IDW60701/IDW60701.94308.json